Skip Navigation LinksHome page > Weather > Current weather Skip Navigation Links

Current Weather

Minneapolis-St Paul Intl/Wold-Chamberlain, Minneapolis

For information only: do not use for flight planning or navigation.
Latest weather
Observation time Sunday, May 26, 2019 10:53 AM CDT
Local time Sunday, May 26, 2019 11:13 AM CDT
Flight conditions Visual Meteorological Conditions
Winds
Wind direction variable
Wind speed 3 mph
Visibility 10 mi.
Sky condition
Ceiling unlimited
Cloud layer scattered clouds 3,800 ft.
Temperature 64°F
Dewpoint 46°F
Altimeter 30.12 in.Hg
Derived measurements
Relative humidity 52%
Density altitude 1096 ft.
Sea-level pressure 30.11 in.Hg
Remarks
Automated weather observing station with precipitation discriminator.
METAR KMSP 261553Z VRB03KT 10SM SCT038 18/08 A3012 RMK AO2 SLP197 T01780078

Settings

Location code

InnerDrive.Weather 4.0.6770.0 Release CLR 4.0.30319.42000
Copyright ©2018 Inner Drive Technology. All rights reserved. Portions Copyright ©1986-2018 David Braverman.

Find weather

Site navigation


Skip Navigation Links

Place info

Page info

PayPal - The safer, easier way to pay online!

Return home.

Copyright ©2019 Inner Drive Technology. Purveyors of fine, hand-crafted computer software. Page printed 2019-05-26T16:13:15 UTC.